createdAt,value
2018-06-01T00:00:29.057Z,101465.25
2018-06-01T00:02:56.622Z,101465.48
2018-06-01T00:05:24.178Z,101465.27
2018-06-01T00:07:51.654Z,101467.03
2018-06-01T00:10:19.196Z,101466.89
2018-06-01T00:12:46.694Z,101461.88
2018-06-01T00:15:14.185Z,101465.80
2018-06-01T00:17:41.664Z,101462.09
2018-06-01T00:20:09.135Z,101460.77
2018-06-01T00:22:36.620Z,101462.41
2018-06-01T00:25:04.195Z,101460.42
2018-06-01T00:27:31.642Z,101461.41
2018-06-01T00:29:59.132Z,101459.22
2018-06-01T00:32:26.715Z,101468.00
2018-06-01T00:34:54.194Z,101462.48
2018-06-01T00:37:21.684Z,101467.73
2018-06-01T00:39:49.168Z,101467.15
2018-06-01T00:42:16.658Z,101463.14
2018-06-01T00:44:44.201Z,101472.75
2018-06-01T00:47:11.685Z,101476.80
2018-06-01T00:49:39.163Z,101479.83
2018-06-01T00:52:06.653Z,101474.37
2018-06-01T00:54:46.046Z,101488.45
2018-06-01T00:57:13.591Z,101483.42
2018-06-01T00:59:41.125Z,101486.52
2018-06-01T01:02:08.623Z,101483.38
2018-06-01T01:04:36.095Z,101481.92
2018-06-01T01:07:03.567Z,101480.97
2018-06-01T01:09:31.157Z,101480.13
2018-06-01T01:11:58.715Z,101482.67
2018-06-01T01:14:26.186Z,101483.56
2018-06-01T01:16:53.666Z,101479.66
2018-06-01T01:19:21.188Z,101484.05
2018-06-01T01:21:48.747Z,101476.67
2018-06-01T01:24:16.223Z,101476.21
2018-06-01T01:26:43.703Z,101474.19
2018-06-01T01:29:11.216Z,101478.43
2018-06-01T01:31:38.695Z,101479.86
2018-06-01T01:34:06.181Z,101471.69
2018-06-01T01:36:33.689Z,101474.90
2018-06-01T01:39:01.248Z,101477.14
2018-06-01T01:41:28.751Z,101477.67
2018-06-01T01:43:56.263Z,101480.02
2018-06-01T01:46:23.746Z,101482.78
2018-06-01T01:48:51.278Z,101476.67
2018-06-01T01:51:18.759Z,101472.77
2018-06-01T01:53:46.296Z,101471.54
2018-06-01T01:56:13.789Z,101476.15
2018-06-01T01:58:41.906Z,101473.61
2018-06-01T02:01:09.485Z,101472.48
2018-06-01T02:03:37.046Z,101471.78
2018-06-01T02:06:04.543Z,101477.22
2018-06-01T02:08:32.055Z,101473.81
2018-06-01T02:10:59.614Z,101466.42
2018-06-01T02:13:27.173Z,101462.11
2018-06-01T02:15:54.740Z,101461.02
2018-06-01T02:18:22.291Z,101465.75
2018-06-01T02:20:49.772Z,101468.34
2018-06-01T02:23:17.247Z,101473.02
2018-06-01T02:25:44.730Z,101470.95
2018-06-01T02:28:12.201Z,101471.48
2018-06-01T02:30:39.689Z,101468.48
2018-06-01T02:33:07.234Z,101469.95
2018-06-01T02:35:34.793Z,101467.91
2018-06-01T02:38:02.334Z,101471.98
2018-06-01T02:40:29.899Z,101460.41
2018-06-01T02:42:57.441Z,101458.20
2018-06-01T02:45:24.928Z,101468.11
2018-06-01T02:47:52.486Z,101471.20
2018-06-01T02:50:19.965Z,101467.27
2018-06-01T02:52:47.502Z,101474.97
2018-06-01T02:55:15.061Z,101467.97
2018-06-01T02:57:42.620Z,101466.70
2018-06-01T03:00:10.150Z,101465.39
2018-06-01T03:02:37.636Z,101467.66
2018-06-01T03:05:05.120Z,101464.13
2018-06-01T03:07:32.651Z,101464.76
2018-06-01T03:10:00.158Z,101466.66
2018-06-01T03:12:27.659Z,101471.81
2018-06-01T03:14:55.236Z,101470.67
2018-06-01T03:17:22.782Z,101471.64
2018-06-01T03:19:50.299Z,101468.84
2018-06-01T03:22:17.798Z,101472.86
2018-06-01T03:24:45.287Z,101473.92
2018-06-01T03:27:12.814Z,101477.13
2018-06-01T03:29:40.335Z,101473.49
2018-06-01T03:32:07.819Z,101467.58
2018-06-01T03:34:35.386Z,101474.69
2018-06-01T03:37:02.945Z,101471.41
2018-06-01T03:39:30.430Z,101471.21
2018-06-01T03:41:57.910Z,101474.55
2018-06-01T03:44:25.432Z,101478.36
2018-06-01T03:46:52.919Z,101473.30
2018-06-01T03:49:20.433Z,101480.43
2018-06-01T03:51:47.911Z,101487.09
2018-06-01T03:54:15.407Z,101484.30
2018-06-01T03:56:42.906Z,101476.02
2018-06-01T03:59:10.466Z,101481.44
2018-06-01T04:01:37.947Z,101479.72
2018-06-01T04:04:05.426Z,101487.80
2018-06-01T04:06:32.936Z,101487.56
2018-06-01T04:09:00.422Z,101486.21
2018-06-01T04:11:27.897Z,101482.55
2018-06-01T04:13:55.407Z,101476.28
2018-06-01T04:16:22.934Z,101481.55
2018-06-01T04:18:50.422Z,101485.36
2018-06-01T04:21:17.898Z,101484.33
2018-06-01T04:23:45.437Z,101490.55
2018-06-01T04:26:12.998Z,101485.91
2018-06-01T04:28:40.556Z,101483.42
2018-06-01T04:31:08.119Z,101484.87
2018-06-01T04:33:35.600Z,101483.07
2018-06-01T04:36:03.167Z,101480.64
2018-06-01T04:38:30.689Z,101476.30
2018-06-01T04:40:58.267Z,101470.00
2018-06-01T04:43:25.808Z,101477.17
2018-06-01T04:45:53.289Z,101479.45
2018-06-01T04:48:20.825Z,101481.98
2018-06-01T04:50:48.336Z,101484.53
2018-06-01T04:53:15.838Z,101486.73
2018-06-01T04:55:43.423Z,101486.48
2018-06-01T04:58:10.957Z,101491.47
2018-06-01T05:00:38.448Z,101495.91
2018-06-01T05:03:05.935Z,101483.12
2018-06-01T05:05:33.435Z,101492.13
2018-06-01T05:08:00.981Z,101491.14
2018-06-01T05:10:28.470Z,101469.53
2018-06-01T05:12:55.971Z,101487.98
2018-06-01T05:15:23.560Z,101482.83
2018-06-01T05:17:51.123Z,101486.51
2018-06-01T05:20:18.681Z,101476.78
2018-06-01T05:22:46.158Z,101485.29
2018-06-01T05:25:13.696Z,101486.03
2018-06-01T05:27:41.256Z,101483.95
2018-06-01T05:30:08.811Z,101480.71
2018-06-01T05:32:36.370Z,101483.06
2018-06-01T05:35:03.851Z,101481.22
2018-06-01T05:37:31.388Z,101483.22
2018-06-01T05:39:58.946Z,101478.39
2018-06-01T05:42:26.505Z,101479.17
2018-06-01T05:44:54.065Z,101475.59
2018-06-01T05:47:21.749Z,101475.77
2018-06-01T05:49:49.175Z,101476.60
2018-06-01T05:52:16.735Z,101468.33
2018-06-01T05:54:44.297Z,101474.36
2018-06-01T05:57:11.771Z,101476.69
2018-06-01T05:59:39.313Z,101475.53
2018-06-01T06:02:06.868Z,101473.23
2018-06-01T06:04:34.375Z,101474.77
2018-06-01T06:07:01.887Z,101477.51
2018-06-01T06:09:29.445Z,101479.17
2018-06-01T06:11:57.004Z,101477.81
2018-06-01T06:14:24.564Z,101479.58
2018-06-01T06:16:52.050Z,101475.48
2018-06-01T06:19:19.529Z,101475.86
2018-06-01T06:21:47.034Z,101475.00
2018-06-01T06:24:14.594Z,101462.98
2018-06-01T06:26:42.082Z,101465.08
2018-06-01T06:29:09.609Z,101465.67
2018-06-01T06:31:37.162Z,101462.73
2018-06-01T06:34:04.630Z,101458.30
2018-06-01T06:36:32.147Z,101458.37
2018-06-01T06:38:59.744Z,101450.36
2018-06-01T06:41:27.302Z,101452.38
2018-06-01T06:43:54.863Z,101447.61
2018-06-01T06:46:22.346Z,101445.39
2018-06-01T06:48:49.876Z,101450.03
2018-06-01T06:51:17.434Z,101449.86
2018-06-01T06:53:44.912Z,101451.55
2018-06-01T06:56:12.451Z,101449.49
2018-06-01T06:58:39.982Z,101436.78
2018-06-01T07:01:08.279Z,101440.93
2018-06-01T07:03:35.766Z,101441.09
2018-06-01T07:06:03.301Z,101440.89
2018-06-01T07:08:30.824Z,101436.80
2018-06-01T07:10:58.294Z,101431.63
2018-06-01T07:13:25.779Z,101432.78
2018-06-01T07:15:53.331Z,101427.27
2018-06-01T07:18:20.889Z,101433.94
2018-06-01T07:20:48.449Z,101424.53
2018-06-01T07:23:16.008Z,101428.89
2018-06-01T07:25:43.495Z,101419.83
2018-06-01T07:28:10.983Z,101419.94
2018-06-01T07:30:38.470Z,101413.75
2018-06-01T07:33:05.946Z,101410.27
2018-06-01T07:35:33.494Z,101407.76
2018-06-01T07:38:01.052Z,101407.39
2018-06-01T07:40:28.611Z,101412.09
2018-06-01T07:42:57.299Z,101409.73
2018-06-01T07:45:24.861Z,101411.57
2018-06-01T07:47:52.414Z,101413.66
2018-06-01T07:50:22.431Z,101412.63
2018-06-01T07:52:49.990Z,101408.81
2018-06-01T07:55:17.548Z,101407.83
2018-06-01T07:57:45.107Z,101400.52
2018-06-01T08:00:12.667Z,101402.45
2018-06-01T08:02:40.139Z,101393.95
2018-06-01T08:05:07.684Z,101395.34
2018-06-01T08:07:35.242Z,101390.23
2018-06-01T08:10:02.802Z,101380.65
2018-06-01T08:12:30.309Z,101374.11
2018-06-01T08:14:57.885Z,101372.84
2018-06-01T08:17:25.373Z,101373.53
2018-06-01T08:19:52.932Z,101364.01
2018-06-01T08:22:20.493Z,101368.39
2018-06-01T08:24:47.969Z,101362.13
2018-06-01T08:27:15.510Z,101360.07
2018-06-01T08:29:42.987Z,101354.97
2018-06-01T08:32:10.470Z,101344.78
2018-06-01T08:34:37.976Z,101344.43
2018-06-01T08:37:05.459Z,101342.77
2018-06-01T08:39:32.999Z,101334.56
2018-06-01T08:42:00.495Z,101344.57
2018-06-01T08:44:28.008Z,101335.86
2018-06-01T08:46:55.482Z,101335.86
2018-06-01T08:49:22.984Z,101326.35
2018-06-01T08:51:50.483Z,101330.22
2018-06-01T08:54:18.076Z,101325.67
2018-06-01T08:56:45.600Z,101324.21
2018-06-01T08:59:13.165Z,101324.21
2018-06-01T09:01:40.716Z,101327.34
2018-06-01T09:04:08.231Z,101327.27
2018-06-01T09:06:35.711Z,101319.72
2018-06-01T09:09:03.196Z,101320.22
2018-06-01T09:11:30.680Z,101316.97
2018-06-01T09:13:58.201Z,101314.94
2018-06-01T09:16:25.679Z,101304.02
2018-06-01T09:18:53.218Z,101310.60
2018-06-01T09:21:20.782Z,101308.98
2018-06-01T09:23:48.335Z,101304.16
2018-06-01T09:26:15.824Z,101307.16
2018-06-01T09:28:43.319Z,101309.07
2018-06-01T09:31:10.812Z,101299.28
2018-06-01T09:33:38.367Z,101295.80
2018-06-01T09:36:05.851Z,101292.88
2018-06-01T09:38:33.339Z,101284.72
2018-06-01T09:41:00.822Z,101286.00
2018-06-01T09:43:28.387Z,101283.48
2018-06-01T09:45:55.955Z,101288.72
2018-06-01T09:48:23.519Z,101282.02
2018-06-01T09:50:51.073Z,101287.29
2018-06-01T09:53:18.554Z,101278.69
2018-06-01T09:55:46.029Z,101272.02
2018-06-01T09:58:13.544Z,101272.48
2018-06-01T10:00:46.743Z,101276.92
2018-06-01T10:03:14.210Z,101269.30
2018-06-01T10:05:41.753Z,101269.29
2018-06-01T10:08:09.310Z,101254.09
2018-06-01T10:10:36.864Z,101263.11
2018-06-01T10:13:04.379Z,101259.50
2018-06-01T10:15:31.896Z,101250.78
2018-06-01T10:17:59.443Z,101251.59
2018-06-01T10:20:27.005Z,101256.85
2018-06-01T10:22:54.561Z,101255.49
2018-06-01T10:25:22.105Z,101247.55
2018-06-01T10:27:49.594Z,101247.28
2018-06-01T10:30:17.075Z,101250.42
2018-06-01T10:32:44.592Z,101241.44
2018-06-01T10:35:12.072Z,101241.77
2018-06-01T10:37:39.567Z,101235.51
2018-06-01T10:40:07.051Z,101233.68
2018-06-01T10:42:34.522Z,101229.05
2018-06-01T10:45:02.079Z,101231.95
2018-06-01T10:47:29.558Z,101231.78
2018-06-01T10:49:57.095Z,101233.86
2018-06-01T10:52:24.653Z,101228.42
2018-06-01T10:54:52.201Z,101224.64
2018-06-01T10:57:19.893Z,101218.90
2018-06-01T10:59:47.374Z,101223.30
2018-06-01T11:02:14.842Z,101222.91
2018-06-01T11:04:42.323Z,101215.43
2018-06-01T11:07:09.819Z,101214.03
2018-06-01T11:09:37.360Z,101212.41
2018-06-01T11:12:04.835Z,101211.46
2018-06-01T11:14:32.374Z,101202.50
2018-06-01T11:16:59.831Z,101206.47
2018-06-01T11:19:27.316Z,101207.17
2018-06-01T11:21:54.953Z,101208.65
2018-06-01T11:24:22.486Z,101210.11
2018-06-01T11:26:50.077Z,101215.11
2018-06-01T11:29:17.569Z,101209.53
2018-06-01T11:31:45.051Z,101203.08
2018-06-01T11:34:12.617Z,101210.94
2018-06-01T11:36:40.103Z,101211.69
2018-06-01T11:39:07.584Z,101213.31
2018-06-01T11:41:35.074Z,101210.05
2018-06-01T11:44:02.570Z,101213.40
2018-06-01T11:46:30.137Z,101216.77
2018-06-01T11:48:57.619Z,101213.28
2018-06-01T11:51:25.196Z,101216.86
2018-06-01T11:53:52.704Z,101221.70
2018-06-01T11:56:20.234Z,101208.98
2018-06-01T11:58:47.721Z,101214.30
2018-06-01T12:01:15.223Z,101212.44
2018-06-01T12:03:42.714Z,101208.88
2018-06-01T12:06:10.195Z,101208.91
2018-06-01T12:08:38.466Z,101200.23
2018-06-01T12:11:06.034Z,101195.17
2018-06-01T12:13:33.531Z,101197.70
2018-06-01T12:16:01.042Z,101196.48
2018-06-01T12:18:28.599Z,101198.48
2018-06-01T12:20:56.255Z,101201.50
2018-06-01T12:23:23.731Z,101199.17
2018-06-01T12:25:51.227Z,101194.45
2018-06-01T12:28:18.738Z,101192.44
2018-06-01T12:30:46.292Z,101194.41
2018-06-01T12:33:13.859Z,101196.48
2018-06-01T12:35:41.411Z,101197.70
2018-06-01T12:38:08.895Z,101197.28
2018-06-01T12:40:36.425Z,101188.86
2018-06-01T12:43:03.917Z,101194.57
2018-06-01T12:45:31.423Z,101191.78
2018-06-01T12:47:58.999Z,101179.23
2018-06-01T12:50:26.558Z,101179.17
2018-06-01T12:52:54.120Z,101173.38
2018-06-01T12:55:21.613Z,101175.03
2018-06-01T12:57:49.136Z,101169.92
2018-06-01T13:00:18.948Z,101172.13
2018-06-01T13:02:46.501Z,101169.48
2018-06-01T13:05:14.076Z,101172.45
2018-06-01T13:07:42.549Z,101164.98
2018-06-01T13:10:10.100Z,101164.73
2018-06-01T13:12:37.648Z,101175.46
2018-06-01T13:15:05.141Z,101169.02
2018-06-01T13:17:32.619Z,101166.91
2018-06-01T13:20:00.108Z,101162.06
2018-06-01T13:22:27.597Z,101160.98
2018-06-01T13:24:55.075Z,101155.84
2018-06-01T13:27:22.568Z,101148.63
2018-06-01T13:29:50.209Z,101151.52
2018-06-01T13:32:17.647Z,101145.91
2018-06-01T13:34:45.123Z,101148.45
2018-06-01T13:37:12.602Z,101150.66
2018-06-01T13:39:40.095Z,101149.71
2018-06-01T13:42:07.653Z,101149.20
2018-06-01T13:44:35.207Z,101143.33
2018-06-01T13:47:02.710Z,101141.59
2018-06-01T13:49:30.224Z,101134.19
2018-06-01T13:51:57.703Z,101135.63
2018-06-01T13:54:25.237Z,101128.44
2018-06-01T13:56:52.738Z,101132.11
2018-06-01T13:59:20.217Z,101121.05
2018-06-01T14:01:47.768Z,101125.08
2018-06-01T14:04:15.270Z,101127.09
2018-06-01T14:06:42.760Z,101119.33
2018-06-01T14:09:10.433Z,101107.84
2018-06-01T14:11:37.945Z,101106.16
2018-06-01T14:14:05.431Z,101110.77
2018-06-01T14:16:32.915Z,101108.84
2018-06-01T14:19:00.435Z,101110.52
2018-06-01T14:21:27.916Z,101100.13
2018-06-01T14:23:55.395Z,101107.97
2018-06-01T14:26:22.888Z,101096.04
2018-06-01T14:28:50.420Z,101095.45
2018-06-01T14:31:17.875Z,101095.55
2018-06-01T14:33:45.352Z,101097.11
2018-06-01T14:36:12.836Z,101092.67
2018-06-01T14:38:40.326Z,101094.36
2018-06-01T14:41:07.832Z,101092.35
2018-06-01T14:43:35.322Z,101093.19
2018-06-01T14:46:02.848Z,101091.13
2018-06-01T14:48:30.323Z,101084.14
2018-06-01T14:50:57.864Z,101087.77
2018-06-01T14:53:25.371Z,101083.19
2018-06-01T14:55:52.982Z,101086.20
2018-06-01T14:58:20.544Z,101085.72
2018-06-01T15:00:48.099Z,101078.25
2018-06-01T15:03:15.658Z,101074.95
2018-06-01T15:05:43.142Z,101073.73
2018-06-01T15:08:10.680Z,101070.94
2018-06-01T15:10:38.168Z,101077.12
2018-06-01T15:13:05.659Z,101071.37
2018-06-01T15:15:33.133Z,101068.22
2018-06-01T15:18:00.709Z,101067.59
2018-06-01T15:20:28.207Z,101059.99
2018-06-01T15:22:55.719Z,101064.56
2018-06-01T15:25:23.258Z,101061.95
2018-06-01T15:27:50.836Z,101067.77
2018-06-01T15:30:18.315Z,101063.78
2018-06-01T15:32:45.851Z,101066.40
2018-06-01T15:35:13.326Z,101052.84
2018-06-01T15:37:40.867Z,101050.54
2018-06-01T15:40:08.347Z,101054.20
2018-06-01T15:42:35.882Z,101049.19
2018-06-01T15:45:03.453Z,101045.53
2018-06-01T15:47:30.946Z,101052.78
2018-06-01T15:49:58.451Z,101047.72
2018-06-01T15:52:25.927Z,101050.92
2018-06-01T15:54:53.410Z,101045.12
2018-06-01T15:57:20.929Z,101048.73
2018-06-01T15:59:48.420Z,101039.92
2018-06-01T16:02:15.944Z,101042.84
2018-06-01T16:04:43.423Z,101039.19
2018-06-01T16:07:10.961Z,101048.09
2018-06-01T16:09:38.439Z,101037.00
2018-06-01T16:12:05.927Z,101046.58
2018-06-01T16:14:33.430Z,101039.58
2018-06-01T16:17:00.915Z,101038.89
2018-06-01T16:19:28.447Z,101035.78
2018-06-01T16:21:55.936Z,101036.94
2018-06-01T16:24:23.475Z,101039.70
2018-06-01T16:26:50.958Z,101040.84
2018-06-01T16:29:18.431Z,101041.69
2018-06-01T16:31:45.936Z,101040.34
2018-06-01T16:34:13.416Z,101041.89
2018-06-01T16:36:40.951Z,101040.56
2018-06-01T16:39:08.448Z,101038.75
2018-06-01T16:41:35.919Z,101033.31
2018-06-01T16:44:03.629Z,101030.31
2018-06-01T16:46:31.185Z,101031.09
2018-06-01T16:48:58.664Z,101030.42
2018-06-01T16:51:26.200Z,101037.03
2018-06-01T16:53:53.760Z,101032.88
2018-06-01T16:56:21.320Z,101039.17
2018-06-01T16:58:48.802Z,101033.13
2018-06-01T17:01:16.334Z,101031.47
2018-06-01T17:03:43.806Z,101042.28
2018-06-01T17:06:11.349Z,101037.22
2018-06-01T17:08:38.910Z,101042.43
2018-06-01T17:11:06.498Z,101041.58
2018-06-01T17:13:34.003Z,101044.20
2018-06-01T17:16:01.561Z,101036.70
2018-06-01T17:18:29.035Z,101043.81
2018-06-01T17:20:56.600Z,101043.91
2018-06-01T17:23:24.158Z,101039.23
2018-06-01T17:25:51.633Z,101042.83
2018-06-01T17:28:19.174Z,101041.88
2018-06-01T17:30:46.672Z,101033.62
2018-06-01T17:33:14.188Z,101037.28
2018-06-01T17:35:41.735Z,101042.70
2018-06-01T17:40:50.791Z,101033.28
2018-06-01T17:43:18.275Z,101033.44
2018-06-01T17:45:45.807Z,101029.41
2018-06-01T17:48:13.366Z,101034.84
2018-06-01T17:50:40.870Z,101032.75
2018-06-01T17:53:08.348Z,101026.59
2018-06-01T17:55:35.832Z,101019.81
2018-06-01T17:58:03.319Z,101016.84
2018-06-01T18:00:30.811Z,101017.27
2018-06-01T18:02:58.309Z,101016.84
2018-06-01T18:05:25.798Z,101016.02
2018-06-01T18:07:53.326Z,101010.42
2018-06-01T18:10:20.804Z,101014.33
2018-06-01T18:12:49.262Z,101015.97
2018-06-01T18:15:16.810Z,101010.98
2018-06-01T18:17:44.326Z,101004.54
2018-06-01T18:20:16.206Z,101011.41
2018-06-01T18:22:43.802Z,101011.97
2018-06-01T18:25:11.329Z,101011.21
2018-06-01T18:27:38.921Z,101005.59
2018-06-01T18:30:06.584Z,101008.14
2018-06-01T18:32:34.058Z,101006.52
2018-06-01T18:35:01.596Z,101008.51
2018-06-01T18:37:29.082Z,101006.04
2018-06-01T18:39:56.608Z,101010.09
2018-06-01T18:42:24.166Z,101001.42
2018-06-01T18:44:51.726Z,101005.86
2018-06-01T18:47:19.285Z,101006.34
2018-06-01T18:49:48.380Z,101002.13
2018-06-01T18:52:15.940Z,101001.82
2018-06-01T18:54:43.498Z,101009.74
2018-06-01T18:57:11.067Z,101006.72
2018-06-01T18:59:38.563Z,101003.97
2018-06-01T19:02:06.087Z,101009.30
2018-06-01T19:04:33.539Z,101005.19
2018-06-01T19:07:01.043Z,101010.43
2018-06-01T19:09:28.517Z,101013.77
2018-06-01T19:11:56.016Z,101011.80
2018-06-01T19:14:23.514Z,101014.25
2018-06-01T19:16:51.014Z,101008.98
2018-06-01T19:19:18.495Z,101012.77
2018-06-01T19:21:45.975Z,101009.48
2018-06-01T19:24:13.486Z,101012.22
2018-06-01T19:26:40.970Z,101010.88
2018-06-01T19:29:08.455Z,101009.80
2018-06-01T19:31:35.958Z,101016.85
2018-06-01T19:34:04.415Z,101017.91
2018-06-01T19:36:31.898Z,101015.85
2018-06-01T19:38:59.371Z,101020.16
2018-06-01T19:41:27.832Z,101020.03
2018-06-01T19:43:55.314Z,101023.20
2018-06-01T19:46:22.886Z,101022.23
2018-06-01T19:48:50.366Z,101026.39
2018-06-01T19:51:17.838Z,101015.74
2018-06-01T19:53:45.313Z,101029.52
2018-06-01T19:56:12.867Z,101030.39
2018-06-01T19:58:40.347Z,101027.62
2018-06-01T20:01:07.904Z,101003.09
2018-06-01T20:03:35.454Z,101039.50
2018-06-01T20:06:03.013Z,101046.53
2018-06-01T20:08:30.535Z,101044.02
2018-06-01T20:10:58.027Z,101049.97
2018-06-01T20:13:25.598Z,101040.93
2018-06-01T20:15:53.098Z,101041.13
2018-06-01T20:18:20.600Z,101034.28
2018-06-01T20:20:48.075Z,101033.98
2018-06-01T20:23:15.627Z,101033.05
2018-06-01T20:25:43.132Z,101035.00
2018-06-01T20:28:10.626Z,101032.66
2018-06-01T20:30:38.128Z,101033.08
2018-06-01T20:33:05.755Z,101021.75
2018-06-01T20:35:33.309Z,101031.92
2018-06-01T20:38:00.895Z,101037.42
2018-06-01T20:40:28.390Z,101023.37
2018-06-01T20:42:55.859Z,101036.78
2018-06-01T20:45:23.415Z,101040.30
2018-06-01T20:47:50.897Z,101040.07
2018-06-01T20:50:18.466Z,101038.02
2018-06-01T20:52:45.979Z,101037.90
2018-06-01T20:55:13.473Z,101041.07
2018-06-01T20:57:41.019Z,101040.71
2018-06-01T21:00:08.503Z,101039.85
2018-06-01T21:02:36.048Z,101044.45
2018-06-01T21:05:03.609Z,101044.16
2018-06-01T21:07:31.112Z,101038.94
2018-06-01T21:09:58.621Z,101039.98
2018-06-01T21:12:26.096Z,101040.08
2018-06-01T21:14:53.599Z,101034.63
2018-06-01T21:17:21.100Z,101035.77
2018-06-01T21:19:48.590Z,101044.28
2018-06-01T21:22:16.109Z,101043.45
2018-06-01T21:24:43.586Z,101036.89
2018-06-01T21:27:11.071Z,101035.80
2018-06-01T21:29:38.562Z,101039.18
2018-06-01T21:32:06.047Z,101043.63
2018-06-01T21:34:33.596Z,101041.77
2018-06-01T21:37:01.153Z,101034.98
2018-06-01T21:39:28.641Z,101034.35
2018-06-01T21:41:56.115Z,101045.32
2018-06-01T21:44:23.635Z,101037.23
2018-06-01T21:46:51.185Z,101039.69
2018-06-01T21:49:18.748Z,101039.50
2018-06-01T21:51:46.231Z,101043.50
2018-06-01T21:54:13.719Z,101031.83
2018-06-01T21:56:41.237Z,101035.70
2018-06-01T21:59:08.773Z,101031.80
2018-06-01T22:01:36.312Z,101032.69
2018-06-01T22:04:03.807Z,101029.60
2018-06-01T22:06:31.348Z,101029.02
2018-06-01T22:08:58.830Z,101029.27
2018-06-01T22:11:26.298Z,101026.22
2018-06-01T22:13:53.820Z,101021.55
2018-06-01T22:16:21.356Z,101020.91
2018-06-01T22:18:48.834Z,101019.89
2018-06-01T22:21:16.394Z,101018.05
2018-06-01T22:23:43.953Z,101022.39
2018-06-01T22:26:11.511Z,101018.91
2018-06-01T22:28:39.070Z,101025.97
2018-06-01T22:31:06.541Z,101021.09
2018-06-01T22:33:34.086Z,101024.33
2018-06-01T22:36:01.580Z,101017.84
2018-06-01T22:38:29.100Z,101016.98
2018-06-01T22:40:56.660Z,101023.00
2018-06-01T22:43:24.139Z,101022.80
2018-06-01T22:45:51.676Z,101022.73
2018-06-01T22:48:19.234Z,101016.92
2018-06-01T22:50:46.712Z,101017.40
2018-06-01T22:53:14.195Z,101017.20
2018-06-01T22:55:42.207Z,101020.23
2018-06-01T22:58:09.781Z,101014.70
2018-06-01T23:00:42.206Z,101010.14
2018-06-01T23:03:09.706Z,101011.36
2018-06-01T23:05:37.265Z,101006.72
2018-06-01T23:08:04.824Z,101006.37
2018-06-01T23:10:32.386Z,101011.83
2018-06-01T23:12:59.942Z,101009.27
2018-06-01T23:15:27.494Z,101007.67
2018-06-01T23:17:55.061Z,101006.57
2018-06-01T23:20:22.586Z,101003.66
2018-06-01T23:22:50.082Z,101011.95
2018-06-01T23:25:17.631Z,101007.86
2018-06-01T23:27:45.193Z,100999.66
2018-06-01T23:30:12.740Z,100998.59
2018-06-01T23:32:40.311Z,100991.75
2018-06-01T23:35:07.872Z,100996.53
2018-06-01T23:37:35.413Z,100990.69
2018-06-01T23:40:02.982Z,100988.36
2018-06-01T23:42:30.550Z,100984.27
2018-06-01T23:44:58.033Z,100993.05
2018-06-01T23:47:25.563Z,100985.63
2018-06-01T23:49:53.122Z,100987.16
2018-06-01T23:52:20.643Z,100985.70
2018-06-01T23:54:48.137Z,100989.31
2018-06-01T23:57:15.699Z,100988.17
2018-06-01T23:59:43.178Z,100990.16
